Aérodrome :
LOGIN :

S'inscrire | Disclaimer

   EN    FR    IT 

 










Légende :    VFR   VFR Marginal   IFR   IFR Intensif   IFR Très Intensif
Visi : 
Plafond : 
>= 8 km
>= 3000ft
5 à 8 km
1000 à 3000 ft
1500m à 5 km
500 à 1000 ft
800 à 1500m
200 à 500 ft
< 800m
< 200 ft
Symboles :   Orages  Brouillard  Fortes neiges  Fortes précipitations  Vent > 20 kt
SIGMETs :   Divers  Orages  Givrage  Turbulence  Onde Orograph.  Cendres Volcan.







- Altitude de l'aérodrome : 87 ft
- Code IATA : AHO


LIEA - Fertilia Alghero

DERNIER METAR :
  • 201850Z 26012KT 9999 -RA SCT025 12/08 Q1017

METARs EXPIRÉS :
  • 201820Z 26011KT 9999 -RA SCT025 12/07 Q1017
  • 201750Z 26010KT 9999 SCT030 12/07 Q1017
  • 201720Z 27007KT 250V310 9999 FEW035 12/06 Q1017
  • 201650Z 28006KT 9999 FEW036 12/06 Q1017
  • 201620Z 29007KT 260V320 9999 FEW035 13/06 Q1018

TAF TAF LIEA
Valide du 20 à 18h jusqu'au 21 à 18h UTC


201700Z 2018/2118 30012KT 9999 SCT030
TEMPO 2020/2024 RA
BECMG 2102/2104 33018G28KT
BECMG 2112/2114 33015KT
Pas de NOTAMs connus pour ce terrain.
4 SIGMETs publiés pour la FIR Roma (LIRR) :
 
Turbulence forte
LIRR SIGMET 8 VALID 201735/202000 LIIB
LIRR ROMA FIR SEV TURB FCST WI N4118 E00826 - N4014 E00845 - N4014 E01026 - N4113 E01025 - N4226 E00948 - N4115 E00944 - N4118 E00826 FL020/070 MOV SE INTSF=
Annulation du SIGMET 5 
LIRR SIGMET 7 VALID 201730/202200 LIIB
LIRR ROMA FIR CNL SIGMET 5 201800/202200=
Turbulence forte
LIRR SIGMET 6 VALID 201800/202200 LIIB
LIRR ROMA FIR SEV TURB FCST WI N3851 E01853 - N3630 E01634 - N3627 E01130 - N3731 E01129 - N3956 E01547 - N3901 E01619 - N3851 E01853 FL240/390 MOV E WKN=
SIGMET 5  ANNULÉ :
Turbulence forte
LIRR SIGMET 5 VALID 201800/202200 LIIB
LIRR ROMA FIR SEV TURB FCST WI N3851 E01853 - N3630 E01634 - N3627 E01130 - N3731 E01129 - N3956 E01547 - N3901 E01619 - N3851 E01853 FL240/390 MOV E NC=



MET'MAP, la Météo Aéronautique d'un coup d'oeil ! - Copyright ORBIFLY Décembre 2007 - Disclaimer

ORBIFLY MET'MAP TEAM :

Programmation & Développement : Alexandra Zaïnal
Conception & Développement : Baudouin d'Aumeries
Co-Programmation & Développement : Marc-Olivier Méhu
Soutien technique & logistique : Manuel Goepfert

Contact : metmap@orbifly.com




SOURCES & CREDITS :

   NOAA